Time;durP1;ratioP1;P1;durP2;ratioP2;P2;SDS_P1;SDS_P2;PMS_P1;PMS_P2;Temp;Humidity;BMP_temperature;BMP_pressure;BME280_temperature;BME280_humidity;BME280_pressure;Samples;Min_cycle;Max_cycle;Signal;HPM_P1;HPM_P2
2020/12/25 00:00:57;;;;;;;3.42;3.03;;;6.00;99.90;;;;;;3615955;39;20244;-75
2020/12/25 00:03:23;;;;;;;4.50;3.40;;;5.90;99.90;;;;;;3609876;39;20291;-75
2020/12/25 00:05:50;;;;;;;6.40;3.72;;;5.90;99.90;;;;;;3613078;39;20248;-75
2020/12/25 00:08:20;;;;;;;6.00;3.40;;;5.90;99.90;;;;;;3616783;39;20244;-74
2020/12/25 00:10:47;;;;;;;7.88;3.08;;;5.80;99.90;;;;;;3612482;39;20376;-75
2020/12/25 00:13:14;;;;;;;7.30;3.47;;;5.80;99.90;;;;;;3628746;32;20268;-75
2020/12/25 00:15:41;;;;;;;7.45;3.38;;;5.80;99.90;;;;;;3614021;39;20295;-74
2020/12/25 00:18:07;;;;;;;4.70;3.85;;;5.80;99.90;;;;;;3613183;39;20765;-75
2020/12/25 00:20:33;;;;;;;6.85;3.47;;;5.80;99.90;;;;;;3613504;39;20247;-75
2020/12/25 00:23:00;;;;;;;4.35;2.92;;;5.90;99.90;;;;;;3611445;39;20252;-75
2020/12/25 00:25:26;;;;;;;7.65;3.03;;;5.90;99.90;;;;;;3615993;39;20268;-75
2020/12/25 00:27:53;;;;;;;5.03;3.90;;;5.90;99.90;;;;;;3611165;39;20280;-75
2020/12/25 00:30:20;;;;;;;6.10;3.70;;;5.90;99.90;;;;;;3617146;39;20274;-75
2020/12/25 00:32:47;;;;;;;8.68;4.63;;;5.80;99.90;;;;;;3613763;39;20313;-75
2020/12/25 00:35:13;;;;;;;4.38;3.28;;;5.80;99.90;;;;;;3614893;39;20256;-75
2020/12/25 00:37:39;;;;;;;10.73;3.42;;;5.70;99.90;;;;;;3612226;39;20291;-75
2020/12/25 00:40:11;;;;;;;3.03;2.63;;;5.60;99.90;;;;;;3613764;39;20352;-75
2020/12/25 00:42:37;;;;;;;10.98;3.75;;;5.70;99.90;;;;;;3611198;39;20330;-75
2020/12/25 00:45:04;;;;;;;7.13;3.30;;;5.80;99.90;;;;;;3611850;39;20292;-75
2020/12/25 00:47:35;;;;;;;6.20;4.10;;;5.80;99.90;;;;;;3616205;39;20268;-75
2020/12/25 00:50:01;;;;;;;4.07;3.17;;;5.80;99.90;;;;;;3611318;39;20294;-75
2020/12/25 00:52:28;;;;;;;8.55;3.35;;;5.80;99.90;;;;;;3614476;39;20300;-75
2020/12/25 00:54:54;;;;;;;4.55;3.45;;;5.80;99.90;;;;;;3612573;39;20385;-75
2020/12/25 00:57:24;;;;;;;2.50;2.22;;;5.70;99.90;;;;;;3613938;39;20269;-74
2020/12/25 00:59:50;;;;;;;3.80;2.97;;;5.70;99.90;;;;;;3612750;39;20252;-75
2020/12/25 01:02:17;;;;;;;5.35;2.70;;;5.70;99.90;;;;;;3612799;32;20253;-75
2020/12/25 01:04:44;;;;;;;12.63;3.45;;;5.80;99.90;;;;;;3611056;39;20268;-75
2020/12/25 01:07:11;;;;;;;8.48;3.20;;;5.70;99.90;;;;;;3618310;39;20462;-75
2020/12/25 01:09:37;;;;;;;7.03;3.15;;;5.70;99.90;;;;;;3613699;39;20317;-75
2020/12/25 01:12:04;;;;;;;5.78;3.20;;;5.60;99.90;;;;;;3613805;39;20255;-75
2020/12/25 01:14:31;;;;;;;3.70;2.90;;;5.60;99.90;;;;;;3610415;39;20236;-75
2020/12/25 01:17:28;;;;;;;4.93;3.10;;;5.60;99.90;;;;;;3612673;39;20803;-75
2020/12/25 01:20:00;;;;;;;4.65;2.80;;;5.60;99.90;;;;;;3611601;39;20296;-75
2020/12/25 01:22:27;;;;;;;6.03;2.90;;;5.50;99.90;;;;;;3613537;39;20244;-75
2020/12/25 01:24:55;;;;;;;3.40;2.35;;;5.60;99.90;;;;;;3616502;39;20272;-75
2020/12/25 01:27:22;;;;;;;6.43;2.83;;;5.60;99.90;;;;;;3613408;39;20256;-74
2020/12/25 01:30:30;;;;;;;7.50;2.70;;;5.50;99.90;;;;;;3628371;32;20832;-75
2020/12/25 01:32:56;;;;;;;5.22;3.25;;;5.50;99.90;;;;;;3611948;39;20753;-75
2020/12/25 01:35:24;;;;;;;12.05;2.97;;;5.40;99.90;;;;;;3616267;39;20379;-75
2020/12/25 01:37:50;;;;;;;6.25;2.45;;;5.40;99.90;;;;;;3614701;39;20350;-75
2020/12/25 01:40:17;;;;;;;12.82;3.13;;;5.30;99.90;;;;;;3610663;39;20344;-75
2020/12/25 01:42:43;;;;;;;5.20;2.65;;;5.30;99.90;;;;;;3612868;39;20384;-75
2020/12/25 01:45:15;;;;;;;5.15;3.00;;;5.20;99.90;;;;;;3612765;39;20305;-75
2020/12/25 01:47:42;;;;;;;6.75;2.63;;;5.30;99.90;;;;;;3614577;39;20270;-75
2020/12/25 01:50:09;;;;;;;7.35;2.40;;;5.30;99.90;;;;;;3610463;39;20280;-75
2020/12/25 01:52:37;;;;;;;12.98;2.92;;;5.30;99.90;;;;;;3613157;39;20267;-75
2020/12/25 01:55:07;;;;;;;5.32;2.50;;;5.40;99.90;;;;;;3610108;39;20259;-75
2020/12/25 01:57:33;;;;;;;6.15;2.13;;;5.40;99.90;;;;;;3607885;39;20264;-74
2020/12/25 02:00:01;;;;;;;4.75;2.67;;;5.40;99.90;;;;;;3615268;39;20299;-75
2020/12/25 02:02:29;;;;;;;4.45;2.25;;;5.50;99.90;;;;;;3611617;39;20260;-75
2020/12/25 02:05:01;;;;;;;5.93;2.60;;;5.40;99.90;;;;;;3616859;39;20248;-75
2020/12/25 02:07:28;;;;;;;6.97;3.08;;;5.40;99.90;;;;;;3609901;39;20248;-75
2020/12/25 02:09:56;;;;;;;7.78;2.20;;;5.30;99.90;;;;;;3612962;39;20264;-75
2020/12/25 02:12:22;;;;;;;9.15;2.70;;;5.30;99.90;;;;;;3613220;39;20252;-75
2020/12/25 02:14:49;;;;;;;9.98;2.92;;;5.20;99.90;;;;;;3616110;39;20256;-75
2020/12/25 02:17:16;;;;;;;2.40;1.90;;;5.20;99.90;;;;;;3612542;39;20277;-75
2020/12/25 02:19:42;;;;;;;4.18;2.35;;;5.20;99.90;;;;;;3612886;39;20263;-74
2020/12/25 02:22:09;;;;;;;18.77;2.55;;;5.20;99.90;;;;;;3614868;39;20284;-75
2020/12/25 02:24:36;;;;;;;2.50;2.17;;;5.10;99.90;;;;;;3618998;39;20311;-74
2020/12/25 02:27:02;;;;;;;7.68;2.10;;;5.20;99.90;;;;;;3612270;39;20290;-75
2020/12/25 02:29:29;;;;;;;6.47;2.30;;;5.10;99.90;;;;;;3609684;39;20252;-75
2020/12/25 02:31:55;;;;;;;4.15;2.10;;;5.10;99.90;;;;;;3602054;39;20245;-75
2020/12/25 02:34:22;;;;;;;10.05;2.70;;;5.10;99.90;;;;;;3608817;32;20369;-75
2020/12/25 02:36:48;;;;;;;4.38;2.22;;;5.10;99.90;;;;;;3607546;39;20349;-75
2020/12/25 02:39:18;;;;;;;4.40;2.38;;;5.10;99.90;;;;;;3602574;39;20597;-74
2020/12/25 02:41:45;;;;;;;17.48;2.17;;;5.10;99.90;;;;;;3623305;32;20260;-75
2020/12/25 02:44:11;;;;;;;8.70;2.08;;;5.10;99.90;;;;;;3616742;39;20252;-75
2020/12/25 02:46:38;;;;;;;6.05;1.95;;;5.10;99.90;;;;;;3616760;39;20270;-75
2020/12/25 02:49:04;;;;;;;11.38;2.50;;;5.10;99.90;;;;;;3613567;39;20274;-75
2020/12/25 02:51:31;;;;;;;5.10;2.13;;;5.10;99.90;;;;;;3612070;39;20761;-75
2020/12/25 02:53:57;;;;;;;4.47;2.22;;;5.10;99.90;;;;;;3616720;39;20276;-75
2020/12/25 02:56:24;;;;;;;4.03;2.03;;;5.10;99.90;;;;;;3615487;39;20355;-74
2020/12/25 02:58:52;;;;;;;4.53;2.17;;;5.10;99.90;;;;;;3613359;39;20236;-75
2020/12/25 03:01:19;;;;;;;6.40;2.47;;;5.10;99.90;;;;;;3615654;39;20723;-75
2020/12/25 03:03:45;;;;;;;3.40;1.88;;;5.10;99.90;;;;;;3614291;39;20330;-75
2020/12/25 03:06:17;;;;;;;6.15;2.90;;;5.10;99.90;;;;;;3611209;39;20324;-75
2020/12/25 03:08:45;;;;;;;4.40;2.72;;;5.00;99.90;;;;;;3612898;39;20252;-75
2020/12/25 03:11:11;;;;;;;10.48;2.60;;;5.00;99.90;;;;;;3610695;39;20352;-75
2020/12/25 03:13:38;;;;;;;3.92;2.50;;;5.00;99.90;;;;;;3612794;39;20244;-75
2020/12/25 03:16:05;;;;;;;6.93;2.97;;;4.90;99.90;;;;;;3614836;39;20636;-75
2020/12/25 03:18:31;;;;;;;2.50;2.30;;;4.90;99.90;;;;;;3616028;39;20255;-75
2020/12/25 03:20:58;;;;;;;7.35;2.20;;;4.90;99.90;;;;;;3612267;39;20274;-75
2020/12/25 03:23:34;;;;;;;6.68;2.35;;;4.70;99.90;;;;;;3611466;39;20351;-75
2020/12/25 03:26:00;;;;;;;7.57;2.70;;;4.70;99.90;;;;;;3608844;39;20244;-75
2020/12/25 03:28:32;;;;;;;13.93;3.13;;;4.60;99.90;;;;;;3613511;39;20302;-75
2020/12/25 03:31:29;;;;;;;11.60;2.70;;;4.60;99.90;;;;;;3614931;39;20255;-74
2020/12/25 03:33:56;;;;;;;9.32;2.45;;;4.50;99.90;;;;;;3610255;39;20256;-75
2020/12/25 03:36:22;;;;;;;5.32;2.30;;;4.40;99.90;;;;;;3610139;39;20252;-75
2020/12/25 03:38:49;;;;;;;8.07;2.40;;;4.40;99.90;;;;;;3647066;32;20290;-75
2020/12/25 03:41:36;;;;;;;10.30;3.03;;;4.30;99.90;;;;;;3610850;39;20395;-75
2020/12/25 03:44:03;;;;;;;9.68;2.70;;;4.20;99.90;;;;;;3609939;39;20276;-75
2020/12/25 03:46:34;;;;;;;11.80;2.78;;;4.20;99.90;;;;;;3613826;39;20287;-75
2020/12/25 03:49:01;;;;;;;5.72;2.92;;;4.20;99.90;;;;;;3616157;39;20784;-75
2020/12/25 03:51:28;;;;;;;9.95;2.97;;;4.20;99.90;;;;;;3616613;39;20273;-75
2020/12/25 03:53:54;;;;;;;10.27;2.40;;;4.20;99.90;;;;;;3613342;39;20272;-75
2020/12/25 03:56:21;;;;;;;3.10;1.88;;;4.20;99.90;;;;;;3611415;39;20260;-74
2020/12/25 03:58:51;;;;;;;9.38;2.40;;;4.30;99.90;;;;;;3616462;39;20282;-75
2020/12/25 04:01:18;;;;;;;6.25;2.40;;;4.30;99.90;;;;;;3614941;32;20256;-75
2020/12/25 04:03:45;;;;;;;12.77;2.92;;;4.30;99.90;;;;;;3614346;39;20329;-75
2020/12/25 04:06:12;;;;;;;7.53;3.05;;;4.20;99.90;;;;;;3613620;39;20272;-75
2020/12/25 04:08:44;;;;;;;7.80;2.47;;;4.20;99.90;;;;;;3613748;39;20240;-75
2020/12/25 04:11:11;;;;;;;5.80;2.90;;;4.20;99.90;;;;;;3615694;39;20788;-75
2020/12/25 04:13:38;;;;;;;5.35;2.67;;;4.10;99.90;;;;;;3617421;39;20244;-75
2020/12/25 04:16:04;;;;;;;7.30;3.10;;;4.10;99.90;;;;;;3618354;39;20264;-75
2020/12/25 04:18:31;;;;;;;5.93;3.15;;;4.10;99.90;;;;;;3610913;39;20284;-75
2020/12/25 04:21:03;;;;;;;11.35;2.80;;;4.10;99.90;;;;;;3614395;39;20276;-75
2020/12/25 04:23:30;;;;;;;11.50;2.30;;;4.00;99.90;;;;;;3611431;39;20338;-75
2020/12/25 04:25:58;;;;;;;8.23;2.88;;;4.00;99.90;;;;;;3616233;39;20336;-75
2020/12/25 04:28:25;;;;;;;4.63;2.38;;;4.00;99.90;;;;;;3614103;39;20277;-75
2020/12/25 04:30:51;;;;;;;9.77;4.50;;;4.00;99.90;;;;;;3616997;39;20248;-75
2020/12/25 04:33:18;;;;;;;6.78;3.83;;;4.00;99.90;;;;;;3616181;39;20248;-75
2020/12/25 04:35:44;;;;;;;5.45;2.88;;;3.90;99.90;;;;;;3614732;39;20281;-75
2020/12/25 04:38:12;;;;;;;8.55;3.05;;;4.00;99.90;;;;;;3614213;39;20274;-75
2020/12/25 04:40:44;;;;;;;18.73;3.10;;;4.00;99.90;;;;;;3612814;39;20252;-75
2020/12/25 04:43:13;;;;;;;9.27;2.35;;;4.00;99.90;;;;;;3614802;39;20260;-75
2020/12/25 04:45:45;;;;;;;16.13;2.85;;;4.00;99.90;;;;;;3613966;39;20264;-75
2020/12/25 04:48:12;;;;;;;12.80;2.58;;;4.00;99.90;;;;;;3610766;39;20271;-75
2020/12/25 04:50:39;;;;;;;9.48;2.80;;;3.90;99.90;;;;;;3613863;32;20236;-75
2020/12/25 04:53:05;;;;;;;4.55;2.75;;;3.90;99.90;;;;;;3612636;39;20297;-75
2020/12/25 04:55:32;;;;;;;7.85;2.65;;;4.00;99.90;;;;;;3614264;39;20261;-75
2020/12/25 04:58:04;;;;;;;10.50;2.95;;;4.00;99.90;;;;;;3616101;39;20663;-75
2020/12/25 05:00:31;;;;;;;7.57;2.15;;;4.00;99.90;;;;;;3617400;39;20340;-75
2020/12/25 05:02:59;;;;;;;7.82;2.13;;;4.00;99.90;;;;;;3612747;39;20294;-75
2020/12/25 05:05:30;;;;;;;7.88;2.28;;;4.00;99.90;;;;;;3630675;32;20260;-75
2020/12/25 05:07:57;;;;;;;6.47;1.88;;;4.00;99.90;;;;;;3616659;39;20263;-75
2020/12/25 05:10:24;;;;;;;4.38;1.73;;;3.90;99.90;;;;;;3613370;39;20255;-75
2020/12/25 05:12:52;;;;;;;6.40;2.08;;;4.00;99.90;;;;;;3613611;39;20344;-75
2020/12/25 05:15:18;;;;;;;5.63;2.03;;;4.00;99.90;;;;;;3616263;39;20252;-75
2020/12/25 05:17:47;;;;;;;4.47;2.08;;;3.90;99.90;;;;;;3616254;39;20282;-75
2020/12/25 05:20:13;;;;;;;8.40;2.45;;;3.80;99.90;;;;;;3610973;39;20353;-75
2020/12/25 05:22:40;;;;;;;4.20;1.50;;;3.80;99.90;;;;;;3613001;39;20289;-74
2020/12/25 05:25:08;;;;;;;8.98;2.30;;;3.80;99.90;;;;;;3613762;39;20344;-73
2020/12/25 05:27:35;;;;;;;3.97;1.98;;;3.70;99.90;;;;;;3613454;39;20623;-73
2020/12/25 05:30:08;;;;;;;4.93;2.08;;;3.70;99.90;;;;;;3616423;39;20285;-73
2020/12/25 05:32:35;;;;;;;10.07;1.65;;;3.70;99.90;;;;;;3614813;39;20302;-74
2020/12/25 05:35:40;;;;;;;6.65;1.95;;;3.70;99.90;;;;;;3612278;39;20284;-73
2020/12/25 05:38:09;;;;;;;10.70;2.05;;;3.60;99.90;;;;;;3611776;39;20251;-73
2020/12/25 05:40:42;;;;;;;10.55;2.20;;;3.50;99.90;;;;;;3612685;39;20251;-73
2020/12/25 05:43:09;;;;;;;5.65;2.60;;;3.50;99.90;;;;;;3616152;39;20290;-73
2020/12/25 05:45:41;;;;;;;14.93;2.97;;;3.40;99.90;;;;;;3611337;39;20288;-73
2020/12/25 05:48:09;;;;;;;2.05;1.95;;;3.40;99.90;;;;;;3613432;39;20260;-73
2020/12/25 05:50:42;;;;;;;8.30;2.58;;;3.40;99.90;;;;;;3611038;39;20251;-73
2020/12/25 05:53:09;;;;;;;8.95;2.60;;;3.30;99.90;;;;;;3614472;39;20349;-73
2020/12/25 05:55:37;;;;;;;6.47;2.20;;;3.20;99.90;;;;;;3613287;39;20267;-73
2020/12/25 05:58:05;;;;;;;7.60;2.70;;;3.20;99.90;;;;;;3612157;39;20266;-74
2020/12/25 06:00:33;;;;;;;3.30;2.47;;;3.10;99.90;;;;;;3612450;39;20335;-74
2020/12/25 06:03:01;;;;;;;4.13;2.00;;;3.20;99.90;;;;;;3611971;39;20244;-73
2020/12/25 06:05:36;;;;;;;7.70;2.65;;;3.10;99.90;;;;;;3612440;39;20291;-74
2020/12/25 06:08:15;;;;;;;3.45;2.17;;;3.10;99.90;;;;;;3612595;39;20301;-74
2020/12/25 06:10:43;;;;;;;7.60;2.70;;;3.20;99.90;;;;;;3611310;39;20232;-74
2020/12/25 06:13:14;;;;;;;9.93;2.33;;;3.20;99.90;;;;;;3613053;39;20282;-73
2020/12/25 06:15:46;;;;;;;6.70;1.77;;;3.20;99.90;;;;;;3610272;39;20264;-73
2020/12/25 06:18:38;;;;;;;6.50;3.38;;;3.20;99.90;;;;;;3617983;39;20687;-74
2020/12/25 06:21:09;;;;;;;4.70;1.55;;;3.30;99.90;;;;;;3615313;39;20357;-74
2020/12/25 06:23:39;;;;;;;6.93;1.95;;;3.30;99.90;;;;;;3613643;39;20279;-74
2020/12/25 06:26:07;;;;;;;4.80;1.92;;;3.40;99.90;;;;;;3612736;39;22811;-73
2020/12/25 06:28:34;;;;;;;7.88;1.90;;;3.40;99.90;;;;;;3612027;39;20325;-73
2020/12/25 06:31:00;;;;;;;7.90;2.50;;;3.50;99.90;;;;;;3615061;39;20336;-73
2020/12/25 06:33:28;;;;;;;6.75;1.88;;;3.50;99.90;;;;;;3610338;39;20283;-73
2020/12/25 06:35:58;;;;;;;5.57;2.28;;;3.50;99.90;;;;;;3609649;39;20344;-73
2020/12/25 06:38:25;;;;;;;3.78;1.80;;;3.50;99.90;;;;;;3607191;39;20260;-74
2020/12/25 06:40:58;;;;;;;9.48;3.15;;;3.50;99.90;;;;;;3609608;39;20629;-73
2020/12/25 06:43:25;;;;;;;6.78;1.92;;;3.60;99.90;;;;;;3611169;39;20278;-74
2020/12/25 06:45:53;;;;;;;7.75;2.90;;;3.60;99.90;;;;;;3612440;39;20418;-73
2020/12/25 06:48:20;;;;;;;11.85;2.70;;;3.60;99.90;;;;;;3615180;39;20368;-73
2020/12/25 06:50:54;;;;;;;5.45;2.40;;;3.70;99.90;;;;;;3618780;39;20272;-73
2020/12/25 06:53:38;;;;;;;5.80;2.28;;;3.70;99.90;;;;;;3612213;39;20932;-73
2020/12/25 06:56:22;;;;;;;12.63;2.80;;;3.80;99.90;;;;;;3609914;39;20306;-73
2020/12/25 06:58:50;;;;;;;4.95;2.72;;;3.80;99.90;;;;;;3613486;39;20248;-73
2020/12/25 07:01:18;;;;;;;6.03;2.30;;;3.80;99.90;;;;;;3610291;39;20259;-73
2020/12/25 07:03:45;;;;;;;6.18;2.47;;;3.90;99.90;;;;;;3609511;39;20271;-74
2020/12/25 07:06:13;;;;;;;9.43;3.63;;;3.90;99.90;;;;;;3609444;39;20332;-73
2020/12/25 07:08:45;;;;;;;17.77;2.60;;;4.00;99.90;;;;;;3613272;39;20274;-73
2020/12/25 07:11:13;;;;;;;4.85;2.60;;;4.00;99.90;;;;;;3611315;39;20590;-73
2020/12/25 07:13:40;;;;;;;9.48;2.55;;;4.00;99.90;;;;;;3609415;39;20256;-73
2020/12/25 07:16:07;;;;;;;4.50;2.22;;;4.00;99.90;;;;;;3616334;39;20270;-73
2020/12/25 07:18:34;;;;;;;4.15;2.38;;;4.00;99.90;;;;;;3610945;39;20352;-73
2020/12/25 07:21:02;;;;;;;4.18;2.58;;;4.00;99.90;;;;;;3613317;39;20257;-73
2020/12/25 07:23:30;;;;;;;3.85;2.25;;;4.10;99.90;;;;;;3614493;39;20279;-73
2020/12/25 07:25:58;;;;;;;7.25;3.25;;;4.10;99.90;;;;;;3618881;39;20272;-75
2020/12/25 07:28:26;;;;;;;4.90;2.30;;;4.10;99.90;;;;;;3617419;39;20344;-74
2020/12/25 07:30:54;;;;;;;7.43;2.75;;;4.10;99.90;;;;;;3617446;39;20287;-73
2020/12/25 07:33:21;;;;;;;7.90;2.65;;;4.20;99.90;;;;;;3613006;39;20182;-74
2020/12/25 07:35:48;;;;;;;7.78;2.65;;;4.20;99.90;;;;;;3602986;39;20229;-74
2020/12/25 07:38:16;;;;;;;6.40;2.38;;;4.20;99.90;;;;;;3618684;39;20376;-74
2020/12/25 07:40:44;;;;;;;3.78;2.00;;;4.20;99.90;;;;;;3615214;39;20236;-74
2020/12/25 07:43:12;;;;;;;4.65;2.80;;;4.20;99.90;;;;;;3622117;39;20275;-74
2020/12/25 07:45:39;;;;;;;6.18;3.10;;;4.20;99.90;;;;;;3612920;39;20768;-74
2020/12/25 07:48:07;;;;;;;10.40;2.88;;;4.30;99.90;;;;;;3612192;39;20248;-74
2020/12/25 07:50:38;;;;;;;3.05;2.17;;;4.30;99.90;;;;;;3611199;39;20248;-74
2020/12/25 07:53:11;;;;;;;7.63;2.63;;;4.30;99.90;;;;;;3614233;39;20255;-74
2020/12/25 07:55:38;;;;;;;6.32;2.80;;;4.30;99.90;;;;;;3618949;32;20239;-77
2020/12/25 07:58:06;;;;;;;8.13;2.90;;;4.30;99.90;;;;;;3615789;39;20272;-74
2020/12/25 08:00:32;;;;;;;10.95;2.60;;;4.30;99.90;;;;;;3609247;39;20236;-76
2020/12/25 08:02:59;;;;;;;9.02;2.65;;;4.20;99.90;;;;;;3615107;39;20330;-75
2020/12/25 08:05:28;;;;;;;2.42;1.75;;;4.30;99.90;;;;;;3608460;39;20260;-75
2020/12/25 08:07:55;;;;;;;5.97;2.53;;;4.30;99.90;;;;;;3612764;39;20241;-74
2020/12/25 08:10:23;;;;;;;8.25;2.40;;;4.20;99.90;;;;;;3617042;39;20282;-74
2020/12/25 08:12:54;;;;;;;10.18;3.25;;;4.20;99.90;;;;;;3626843;31;20757;-74
2020/12/25 08:15:23;;;;;;;7.07;2.17;;;4.10;99.90;;;;;;3616432;39;20278;-73
2020/12/25 08:17:50;;;;;;;4.68;2.22;;;4.10;99.90;;;;;;3613788;39;20258;-74
2020/12/25 08:20:17;;;;;;;6.57;2.70;;;4.00;99.90;;;;;;3612293;39;20245;-74
2020/12/25 08:22:43;;;;;;;8.52;2.65;;;4.00;99.90;;;;;;3612497;39;20261;-74
2020/12/25 08:25:10;;;;;;;6.57;3.15;;;3.90;99.90;;;;;;3617577;39;20252;-76
2020/12/25 08:27:37;;;;;;;5.50;3.08;;;3.90;99.90;;;;;;3617446;39;20271;-74
2020/12/25 08:30:06;;;;;;;7.60;2.80;;;3.90;99.90;;;;;;3629528;32;20355;-74
2020/12/25 08:32:34;;;;;;;6.30;2.60;;;3.80;99.90;;;;;;3611807;39;20792;-74
2020/12/25 08:35:11;;;;;;;5.63;2.30;;;3.80;99.90;;;;;;3618002;39;20243;-75
2020/12/25 08:37:38;;;;;;;6.65;2.72;;;3.70;99.90;;;;;;3614771;39;20278;-75
2020/12/25 08:40:15;;;;;;;7.45;2.60;;;3.70;99.90;;;;;;3613855;39;20271;-75
2020/12/25 08:42:41;;;;;;;8.15;2.58;;;3.70;99.90;;;;;;3611167;39;20252;-74
2020/12/25 08:45:08;;;;;;;7.85;3.13;;;3.70;99.90;;;;;;3613625;39;20271;-74
2020/12/25 08:47:36;;;;;;;9.02;3.03;;;3.70;99.90;;;;;;3619163;39;20270;-74
2020/12/25 08:50:03;;;;;;;7.30;2.05;;;3.70;99.90;;;;;;3608695;39;20256;-75
2020/12/25 08:52:30;;;;;;;10.40;2.53;;;3.70;99.90;;;;;;3617803;39;20278;-75
2020/12/25 08:54:57;;;;;;;5.82;3.83;;;3.80;99.90;;;;;;3615158;39;20266;-74
2020/12/25 08:57:24;;;;;;;5.43;2.28;;;3.80;99.90;;;;;;3613891;39;20279;-75
2020/12/25 09:00:01;;;;;;;9.35;2.50;;;4.00;99.90;;;;;;3610661;39;20278;-74
2020/12/25 09:02:27;;;;;;;9.15;3.20;;;4.10;99.90;;;;;;3618887;39;20290;-74
2020/12/25 09:04:55;;;;;;;4.97;2.90;;;4.30;99.90;;;;;;3613326;39;20247;-75
2020/12/25 09:07:21;;;;;;;6.35;3.20;;;4.40;99.90;;;;;;3624081;32;20252;-75
2020/12/25 09:09:48;;;;;;;6.97;3.15;;;4.50;99.90;;;;;;3615729;39;20302;-75
2020/12/25 09:12:17;;;;;;;7.32;3.50;;;4.70;99.90;;;;;;3612311;39;20251;-75
2020/12/25 09:14:43;;;;;;;6.65;3.42;;;4.90;99.90;;;;;;3638370;32;20279;-75
2020/12/25 09:17:11;;;;;;;6.15;2.92;;;5.10;99.90;;;;;;3617066;39;20256;-75
2020/12/25 09:19:37;;;;;;;5.93;3.60;;;5.20;99.90;;;;;;3615854;32;20253;-75
2020/12/25 09:22:05;;;;;;;5.78;3.50;;;5.40;99.90;;;;;;3607925;39;20285;-74
2020/12/25 09:24:31;;;;;;;3.97;3.40;;;5.50;99.90;;;;;;3615896;39;20259;-75
2020/12/25 09:26:57;;;;;;;6.97;3.50;;;5.60;99.90;;;;;;3613490;39;20260;-76
2020/12/25 09:29:24;;;;;;;11.07;3.58;;;5.70;99.90;;;;;;3613095;39;20252;-75
2020/12/25 09:31:50;;;;;;;8.13;3.42;;;5.80;99.90;;;;;;3613619;39;20253;-75
2020/12/25 09:34:17;;;;;;;3.85;3.10;;;5.80;99.90;;;;;;3615252;39;20263;-75
2020/12/25 09:36:44;;;;;;;7.25;2.75;;;5.90;99.90;;;;;;3615748;39;20260;-75
2020/12/25 09:39:11;;;;;;;4.97;2.85;;;6.00;99.90;;;;;;3615426;39;20252;-75
2020/12/25 09:41:38;;;;;;;7.75;2.80;;;6.00;99.90;;;;;;3610242;39;20256;-75
2020/12/25 09:44:04;;;;;;;11.63;4.10;;;6.00;99.90;;;;;;3617079;39;20411;-75
2020/12/25 09:46:31;;;;;;;8.75;2.95;;;6.10;99.90;;;;;;3623398;32;20260;-75
2020/12/25 09:48:57;;;;;;;7.50;2.80;;;6.10;99.90;;;;;;3612122;39;20344;-74
2020/12/25 09:51:24;;;;;;;5.32;2.38;;;6.20;99.90;;;;;;3613469;39;20292;-75
2020/12/25 09:53:51;;;;;;;5.32;2.65;;;6.30;99.90;;;;;;3620408;32;20260;-75
2020/12/25 09:56:19;;;;;;;4.95;3.05;;;6.30;99.90;;;;;;3612123;39;20276;-75
2020/12/25 09:58:45;;;;;;;14.93;3.85;;;6.30;99.90;;;;;;3609115;39;20260;-75
2020/12/25 10:01:12;;;;;;;11.98;2.70;;;6.30;99.90;;;;;;3615463;39;20336;-75
2020/12/25 10:03:38;;;;;;;7.93;3.20;;;6.30;99.90;;;;;;3610911;39;20323;-74
2020/12/25 10:06:05;;;;;;;10.18;3.25;;;6.30;99.90;;;;;;3613761;39;20377;-75
2020/12/25 10:08:31;;;;;;;5.97;3.22;;;6.30;99.90;;;;;;3614761;39;20328;-74
2020/12/25 10:10:58;;;;;;;9.40;3.35;;;6.30;99.90;;;;;;3616669;39;20262;-75
2020/12/25 10:13:25;;;;;;;11.45;3.85;;;6.40;99.90;;;;;;3614360;39;20240;-75
2020/12/25 10:15:53;;;;;;;6.75;3.85;;;6.40;99.90;;;;;;3615141;39;20281;-75
2020/12/25 10:18:20;;;;;;;11.00;3.88;;;6.70;99.90;;;;;;3614855;39;20248;-75
2020/12/25 10:20:48;;;;;;;9.20;4.28;;;6.90;99.90;;;;;;3616425;39;20272;-75
2020/12/25 10:23:14;;;;;;;7.03;4.10;;;7.20;99.90;;;;;;3616817;39;20252;-75
2020/12/25 10:25:40;;;;;;;13.20;3.45;;;7.60;99.90;;;;;;3623155;32;20769;-75
2020/12/25 10:28:07;;;;;;;7.82;3.10;;;8.00;99.90;;;;;;3610741;39;20647;-75
2020/12/25 10:30:42;;;;;;;7.13;3.85;;;8.40;99.90;;;;;;3623645;32;21137;-75
2020/12/25 10:33:08;;;;;;;12.45;3.70;;;8.70;99.90;;;;;;3615418;39;20269;-75
2020/12/25 10:35:35;;;;;;;11.77;4.30;;;8.60;99.90;;;;;;3611699;39;20287;-75
2020/12/25 10:38:01;;;;;;;10.48;5.35;;;8.70;99.90;;;;;;3626901;32;20284;-75
2020/12/25 10:40:28;;;;;;;9.35;3.92;;;8.70;99.90;;;;;;3614831;39;20244;-76
2020/12/25 10:42:54;;;;;;;13.88;4.03;;;8.80;99.90;;;;;;3614004;39;20379;-75
2020/12/25 10:45:21;;;;;;;5.90;3.35;;;8.70;99.90;;;;;;3612538;39;20387;-75
2020/12/25 10:47:48;;;;;;;3.83;2.90;;;8.50;99.90;;;;;;3612029;39;20352;-75
2020/12/25 10:50:15;;;;;;;7.05;2.70;;;8.30;99.90;;;;;;3609323;39;20268;-75
2020/12/25 10:52:41;;;;;;;13.63;3.40;;;8.10;99.90;;;;;;3609247;39;20259;-75
2020/12/25 10:55:08;;;;;;;16.02;4.32;;;8.00;99.90;;;;;;3606115;39;20263;-75
2020/12/25 10:57:34;;;;;;;9.40;3.40;;;7.90;99.90;;;;;;3612673;39;20244;-75
2020/12/25 11:00:01;;;;;;;8.77;3.30;;;7.80;99.90;;;;;;3612480;39;20294;-75
2020/12/25 11:08:18;;;;;;;4.60;1.73;;;7.20;99.90;;;;;;3630405;31;20252;-74
2020/12/25 11:10:45;;;;;;;4.13;1.98;;;7.10;99.90;;;;;;3663047;31;20946;-74
2020/12/25 11:13:11;;;;;;;12.02;1.85;;;7.10;99.90;;;;;;3629137;39;20292;-75
2020/12/25 11:15:40;;;;;;;6.15;2.17;;;7.20;99.90;;;;;;3631094;39;20687;-75
2020/12/25 11:18:06;;;;;;;5.65;1.90;;;7.20;99.90;;;;;;3631873;39;20270;-75
2020/12/25 11:20:36;;;;;;;11.40;2.60;;;7.20;99.90;;;;;;3630782;39;20251;-74
2020/12/25 11:23:04;;;;;;;3.28;2.13;;;7.20;99.90;;;;;;3629767;39;20826;-75
2020/12/25 11:25:31;;;;;;;12.88;3.08;;;7.00;99.90;;;;;;3630714;31;20251;-74
2020/12/25 11:27:59;;;;;;;11.73;2.40;;;6.90;99.90;;;;;;3629284;39;20363;-74
2020/12/25 11:30:26;;;;;;;8.60;2.67;;;6.90;99.90;;;;;;3629554;39;20248;-74
2020/12/25 11:32:54;;;;;;;7.05;2.88;;;6.90;99.90;;;;;;3630787;39;20756;-74
2020/12/25 11:35:22;;;;;;;6.07;2.40;;;7.00;99.90;;;;;;3630585;39;20310;-74
2020/12/25 11:37:49;;;;;;;8.23;2.55;;;7.20;99.90;;;;;;3628895;39;20407;-75
2020/12/25 11:40:15;;;;;;;4.57;2.88;;;7.20;99.90;;;;;;3629184;39;20255;-74
2020/12/25 11:42:43;;;;;;;5.45;2.65;;;7.30;99.90;;;;;;3632063;39;20251;-74
2020/12/25 11:45:09;;;;;;;5.50;2.72;;;7.30;99.90;;;;;;3634209;39;20291;-74
2020/12/25 11:47:36;;;;;;;10.68;2.65;;;7.20;99.90;;;;;;3636890;39;20255;-74
2020/12/25 11:50:02;;;;;;;4.18;1.90;;;7.20;99.90;;;;;;3628771;39;20240;-74
2020/12/25 11:52:31;;;;;;;7.68;1.80;;;7.10;99.90;;;;;;3629202;39;20869;-76
2020/12/25 11:54:58;;;;;;;5.32;2.40;;;7.00;99.90;;;;;;3640981;31;20284;-74
2020/12/25 11:57:26;;;;;;;7.53;1.95;;;6.90;99.90;;;;;;3637692;39;20250;-74
2020/12/25 11:59:53;;;;;;;7.28;2.45;;;6.80;99.90;;;;;;3637743;39;20243;-74
2020/12/25 12:02:20;;;;;;;9.93;2.53;;;6.80;99.90;;;;;;3629428;39;20248;-74
2020/12/25 12:04:46;;;;;;;10.45;3.55;;;6.70;99.90;;;;;;3629408;39;20310;-74
2020/12/25 12:07:13;;;;;;;6.30;2.78;;;6.70;99.90;;;;;;3628554;39;20248;-74
2020/12/25 12:09:39;;;;;;;6.90;2.47;;;6.70;99.90;;;;;;3628718;39;20274;-74
2020/12/25 12:12:06;;;;;;;6.90;1.83;;;6.70;99.90;;;;;;3628433;39;20268;-74
2020/12/25 12:14:32;;;;;;;11.15;1.60;;;6.60;99.90;;;;;;3629649;39;20328;-74
2020/12/25 12:16:59;;;;;;;6.25;1.67;;;6.60;99.90;;;;;;3623787;39;20255;-74
2020/12/25 12:19:26;;;;;;;3.70;1.70;;;6.50;99.90;;;;;;3624764;39;20764;-75
2020/12/25 12:21:52;;;;;;;9.43;1.90;;;6.50;99.90;;;;;;3630368;39;20873;-74
2020/12/25 12:24:19;;;;;;;9.50;1.50;;;6.40;99.90;;;;;;3632863;39;20250;-74
2020/12/25 12:26:48;;;;;;;3.58;1.63;;;6.40;99.90;;;;;;3630507;39;20362;-74
2020/12/25 12:29:15;;;;;;;6.22;1.63;;;6.40;99.90;;;;;;3624655;39;20260;-74
2020/12/25 12:31:43;;;;;;;7.47;2.88;;;6.30;99.90;;;;;;3624744;39;20281;-74
2020/12/25 12:34:10;;;;;;;7.05;2.28;;;6.40;99.90;;;;;;3631579;31;20244;-74
2020/12/25 12:36:37;;;;;;;3.70;1.92;;;6.40;99.90;;;;;;3624755;39;20683;-74
2020/12/25 12:39:03;;;;;;;4.22;2.30;;;6.50;99.90;;;;;;3621563;39;20503;-74
2020/12/25 12:41:30;;;;;;;7.28;2.03;;;6.50;99.90;;;;;;3636725;31;20262;-74
2020/12/25 12:43:56;;;;;;;8.68;2.22;;;6.60;99.90;;;;;;3621428;39;20344;-74
2020/12/25 12:46:24;;;;;;;6.47;2.33;;;6.70;99.90;;;;;;3621906;39;20312;-74
2020/12/25 12:48:51;;;;;;;3.17;2.28;;;7.00;99.90;;;;;;3624206;39;20244;-74
2020/12/25 12:51:18;;;;;;;4.38;1.85;;;7.10;99.90;;;;;;3626232;39;20362;-74
2020/12/25 12:53:45;;;;;;;4.93;2.28;;;7.20;99.90;;;;;;3621249;39;20288;-74
2020/12/25 12:56:12;;;;;;;8.95;2.20;;;7.30;99.90;;;;;;3623325;39;20339;-74
2020/12/25 12:58:39;;;;;;;5.90;1.85;;;7.30;99.90;;;;;;3653330;31;20282;-74
2020/12/25 13:01:05;;;;;;;12.55;3.10;;;7.40;99.90;;;;;;3621474;39;20286;-74
2020/12/25 13:03:32;;;;;;;6.68;3.10;;;7.50;99.90;;;;;;3621911;39;20272;-75
2020/12/25 13:05:58;;;;;;;6.90;3.40;;;7.50;99.90;;;;;;3623563;39;20269;-74